Time;durP1;ratioP1;P1;durP2;ratioP2;P2;SDS_P1;SDS_P2;PMS_P1;PMS_P2;Temp;Humidity;BMP_temperature;BMP_pressure;BME280_temperature;BME280_humidity;BME280_pressure;Samples;Min_cycle;Max_cycle;Signal;HPM_P1;HPM_P2
2022/07/13 00:01:01;;;;;;;2.83;2.13;;;;;;;;;;4985808;28;20043;-92
2022/07/13 00:03:26;;;;;;;3.83;2.22;;;;;;;;;;4982696;28;20033;-92
2022/07/13 00:05:51;;;;;;;5.20;2.30;;;;;;;;;;4985694;28;20050;-91
2022/07/13 00:08:17;;;;;;;2.88;2.15;;;;;;;;;;4994007;28;20042;-91
2022/07/13 00:10:42;;;;;;;6.47;2.17;;;;;;;;;;4987352;28;20146;-91
2022/07/13 00:13:07;;;;;;;3.33;2.20;;;;;;;;;;4978930;28;20060;-90
2022/07/13 00:15:33;;;;;;;2.75;1.80;;;;;;;;;;4991369;28;20093;-92
2022/07/13 00:17:59;;;;;;;2.42;2.00;;;;;;;;;;4993438;28;20109;-92
2022/07/13 00:20:27;;;;;;;3.78;1.92;;;;;;;;;;4992347;28;20038;-91
2022/07/13 00:22:52;;;;;;;2.33;1.80;;;;;;;;;;4990244;28;20050;-91
2022/07/13 00:25:17;;;;;;;6.10;2.20;;;;;;;;;;5005878;28;20038;-91
2022/07/13 00:27:43;;;;;;;3.80;1.92;;;;;;;;;;4989199;28;20026;-91
2022/07/13 00:30:09;;;;;;;5.75;2.03;;;;;;;;;;4987730;28;20121;-90
2022/07/13 00:32:35;;;;;;;3.53;2.00;;;;;;;;;;4991814;28;20042;-91
2022/07/13 00:35:00;;;;;;;2.95;1.95;;;;;;;;;;4985197;28;20323;-91
2022/07/13 00:37:25;;;;;;;4.57;2.28;;;;;;;;;;4982357;28;20524;-87
2022/07/13 00:39:51;;;;;;;2.08;1.70;;;;;;;;;;4987675;28;20042;-91
2022/07/13 00:42:16;;;;;;;4.70;2.10;;;;;;;;;;4987541;28;20033;-92
2022/07/13 00:44:41;;;;;;;7.18;2.10;;;;;;;;;;4983386;28;20046;-91
2022/07/13 00:47:07;;;;;;;3.28;2.10;;;;;;;;;;4988204;28;20132;-91
2022/07/13 00:49:32;;;;;;;3.88;2.10;;;;;;;;;;4991429;28;20177;-91
2022/07/13 00:51:57;;;;;;;6.90;2.10;;;;;;;;;;4988999;28;20064;-91
2022/07/13 00:54:29;;;;;;;3.25;2.10;;;;;;;;;;4990352;28;20022;-91
2022/07/13 00:56:55;;;;;;;3.55;1.95;;;;;;;;;;4986512;28;20077;-91
2022/07/13 00:59:20;;;;;;;4.78;1.83;;;;;;;;;;4990518;28;20047;-91
2022/07/13 01:01:46;;;;;;;4.15;2.05;;;;;;;;;;4990461;28;20042;-92
2022/07/13 01:04:11;;;;;;;4.47;2.10;;;;;;;;;;4989444;28;20037;-91
2022/07/13 01:06:37;;;;;;;3.90;2.30;;;;;;;;;;4990750;28;20066;-91
2022/07/13 01:09:03;;;;;;;3.22;2.10;;;;;;;;;;4988960;28;20042;-91
2022/07/13 01:11:29;;;;;;;2.75;2.00;;;;;;;;;;4990375;28;20064;-91
2022/07/13 01:13:55;;;;;;;4.28;1.90;;;;;;;;;;4989514;28;20117;-92
2022/07/13 01:16:22;;;;;;;5.07;2.17;;;;;;;;;;4972357;28;20042;-91
2022/07/13 01:18:48;;;;;;;3.65;1.80;;;;;;;;;;4989642;28;20030;-90
2022/07/13 01:21:13;;;;;;;2.88;1.92;;;;;;;;;;4987997;28;20041;-90
2022/07/13 01:23:39;;;;;;;2.85;1.85;;;;;;;;;;4990519;28;20041;-91
2022/07/13 01:26:07;;;;;;;2.60;2.05;;;;;;;;;;4988235;28;20038;-88
2022/07/13 01:28:32;;;;;;;3.60;2.20;;;;;;;;;;4988332;28;20038;-91
2022/07/13 01:30:58;;;;;;;2.95;2.08;;;;;;;;;;4984578;28;20042;-90
2022/07/13 01:33:23;;;;;;;2.95;2.00;;;;;;;;;;4988678;28;20057;-91
2022/07/13 01:35:49;;;;;;;2.70;2.05;;;;;;;;;;4989902;28;20031;-91
2022/07/13 01:38:14;;;;;;;2.53;1.80;;;;;;;;;;4982889;28;20118;-91
2022/07/13 01:40:41;;;;;;;4.40;2.35;;;;;;;;;;4982617;28;20129;-91
2022/07/13 01:43:07;;;;;;;2.95;2.20;;;;;;;;;;4994125;28;20042;-90
2022/07/13 01:45:32;;;;;;;6.55;2.30;;;;;;;;;;4987132;28;20465;-91
2022/07/13 01:47:58;;;;;;;3.38;2.28;;;;;;;;;;4989181;28;20034;-91
2022/07/13 01:50:25;;;;;;;2.72;2.10;;;;;;;;;;4989669;28;20054;-92
2022/07/13 01:52:51;;;;;;;3.20;2.00;;;;;;;;;;4991137;28;20027;-92
2022/07/13 01:55:17;;;;;;;3.28;2.20;;;;;;;;;;4988673;28;20457;-91
2022/07/13 01:57:42;;;;;;;2.72;2.00;;;;;;;;;;4989346;28;20131;-91
2022/07/13 02:00:19;;;;;;;3.25;2.20;;;;;;;;;;4993039;28;20026;-91
2022/07/13 02:02:45;;;;;;;2.75;2.10;;;;;;;;;;4990510;28;20446;-91
2022/07/13 02:05:11;;;;;;;5.53;2.63;;;;;;;;;;4987664;28;20125;-91
2022/07/13 02:07:39;;;;;;;3.13;2.28;;;;;;;;;;5001947;28;20046;-91
2022/07/13 02:10:06;;;;;;;4.10;2.30;;;;;;;;;;4989946;28;20035;-91
2022/07/13 02:12:31;;;;;;;3.10;2.00;;;;;;;;;;4989820;28;20086;-91
2022/07/13 02:14:56;;;;;;;3.38;2.20;;;;;;;;;;4987691;28;20107;-91
2022/07/13 02:17:22;;;;;;;3.28;2.25;;;;;;;;;;4996063;28;20038;-91
2022/07/13 02:19:47;;;;;;;2.97;2.03;;;;;;;;;;5001945;28;20109;-91
2022/07/13 02:22:12;;;;;;;3.45;2.25;;;;;;;;;;5001647;28;20126;-91
2022/07/13 02:24:38;;;;;;;4.10;2.20;;;;;;;;;;4992551;28;20025;-90
2022/07/13 02:27:03;;;;;;;4.03;2.28;;;;;;;;;;4994297;28;20030;-91
2022/07/13 02:29:28;;;;;;;2.92;2.15;;;;;;;;;;4992116;28;20031;-87
2022/07/13 02:31:54;;;;;;;3.92;2.22;;;;;;;;;;4985541;28;20076;-90
2022/07/13 02:34:19;;;;;;;4.00;2.00;;;;;;;;;;4988868;28;20608;-90
2022/07/13 02:36:44;;;;;;;10.45;2.15;;;;;;;;;;4984613;28;20022;-91
2022/07/13 02:39:10;;;;;;;4.38;2.20;;;;;;;;;;4984933;28;20031;-91
2022/07/13 02:41:35;;;;;;;3.08;2.05;;;;;;;;;;5004151;28;20038;-91
2022/07/13 02:44:01;;;;;;;3.33;2.20;;;;;;;;;;4994399;28;20036;-91
2022/07/13 02:46:26;;;;;;;2.55;2.15;;;;;;;;;;4991649;28;20035;-91
2022/07/13 02:48:52;;;;;;;2.80;2.00;;;;;;;;;;4978464;28;20042;-91
2022/07/13 02:51:17;;;;;;;2.80;2.10;;;;;;;;;;4986714;28;20030;-90
2022/07/13 02:53:43;;;;;;;7.95;2.30;;;;;;;;;;4991645;28;20037;-91
2022/07/13 02:56:08;;;;;;;3.20;2.08;;;;;;;;;;4991701;28;20176;-90
2022/07/13 02:58:33;;;;;;;3.75;2.33;;;;;;;;;;4989101;28;20564;-89
2022/07/13 03:00:59;;;;;;;3.28;2.00;;;;;;;;;;4991441;28;20041;-90
2022/07/13 03:03:24;;;;;;;4.35;2.03;;;;;;;;;;4991209;28;20029;-90
2022/07/13 03:05:50;;;;;;;5.43;2.25;;;;;;;;;;4978712;28;20659;-89
2022/07/13 03:08:15;;;;;;;3.40;2.10;;;;;;;;;;4990733;28;20038;-90
2022/07/13 03:10:41;;;;;;;2.92;2.00;;;;;;;;;;4991555;28;20034;-91
2022/07/13 03:13:06;;;;;;;2.97;2.10;;;;;;;;;;4991789;28;20034;-91
2022/07/13 03:15:32;;;;;;;5.78;2.08;;;;;;;;;;4986496;28;20030;-90
2022/07/13 03:17:57;;;;;;;3.53;2.28;;;;;;;;;;4986119;28;20019;-91
2022/07/13 03:20:23;;;;;;;4.28;2.15;;;;;;;;;;4990908;28;20038;-90
2022/07/13 03:22:49;;;;;;;3.08;2.13;;;;;;;;;;4989961;28;20118;-90
2022/07/13 03:25:15;;;;;;;3.25;2.00;;;;;;;;;;4990960;28;20038;-91
2022/07/13 03:27:40;;;;;;;2.90;2.10;;;;;;;;;;4991005;28;20025;-91
2022/07/13 03:30:07;;;;;;;3.45;2.17;;;;;;;;;;4991547;28;20065;-91
2022/07/13 03:32:32;;;;;;;3.42;2.35;;;;;;;;;;4990166;28;20038;-91
2022/07/13 03:34:57;;;;;;;4.30;2.13;;;;;;;;;;4989994;28;20125;-90
2022/07/13 03:37:23;;;;;;;2.72;1.80;;;;;;;;;;4978058;28;20058;-91
2022/07/13 03:39:48;;;;;;;3.08;1.70;;;;;;;;;;4990287;28;20118;-91
2022/07/13 03:42:14;;;;;;;3.55;1.75;;;;;;;;;;4991610;28;20033;-89
2022/07/13 03:44:39;;;;;;;3.85;1.77;;;;;;;;;;4989791;28;20069;-89
2022/07/13 03:47:05;;;;;;;2.53;1.92;;;;;;;;;;4978035;28;20399;-90
2022/07/13 03:49:30;;;;;;;2.97;2.00;;;;;;;;;;4992410;28;20468;-90
2022/07/13 03:51:55;;;;;;;2.63;1.98;;;;;;;;;;4986060;28;20042;-91
2022/07/13 03:54:21;;;;;;;4.00;2.05;;;;;;;;;;4980520;28;20022;-91
2022/07/13 03:56:47;;;;;;;3.83;1.92;;;;;;;;;;4988050;28;20049;-91
2022/07/13 03:59:12;;;;;;;3.67;2.00;;;;;;;;;;4988982;28;20161;-91
2022/07/13 04:01:38;;;;;;;2.97;1.80;;;;;;;;;;4991019;28;20121;-90
2022/07/13 04:04:05;;;;;;;1.80;1.50;;;;;;;;;;4985603;28;20042;-91
2022/07/13 04:06:30;;;;;;;2.95;1.92;;;;;;;;;;4984746;28;20050;-91
2022/07/13 04:08:56;;;;;;;4.38;1.95;;;;;;;;;;4974833;28;20052;-90
2022/07/13 04:11:21;;;;;;;4.00;1.90;;;;;;;;;;4990028;28;20481;-91
2022/07/13 04:13:47;;;;;;;2.40;1.85;;;;;;;;;;4989292;28;20034;-90
2022/07/13 04:16:12;;;;;;;2.67;1.90;;;;;;;;;;4980575;28;20046;-90
2022/07/13 04:18:38;;;;;;;7.85;1.98;;;;;;;;;;4989412;28;20033;-90
2022/07/13 04:21:04;;;;;;;2.50;1.73;;;;;;;;;;4989908;28;20018;-90
2022/07/13 04:23:30;;;;;;;3.05;1.90;;;;;;;;;;4981839;28;20044;-90
2022/07/13 04:25:59;;;;;;;1.92;1.60;;;;;;;;;;4989482;28;20070;-91
2022/07/13 04:28:24;;;;;;;2.10;1.70;;;;;;;;;;4996574;28;20030;-89
2022/07/13 04:30:50;;;;;;;2.53;1.80;;;;;;;;;;4994439;28;20026;-89
2022/07/13 04:33:15;;;;;;;3.40;1.77;;;;;;;;;;4986060;28;20019;-90
2022/07/13 04:35:41;;;;;;;3.10;1.95;;;;;;;;;;4989417;28;20089;-90
2022/07/13 04:38:06;;;;;;;2.55;1.90;;;;;;;;;;4987404;28;20049;-91
2022/07/13 04:40:32;;;;;;;4.40;1.65;;;;;;;;;;4996372;28;20117;-91
2022/07/13 04:42:57;;;;;;;3.35;1.98;;;;;;;;;;4996571;28;20403;-90
2022/07/13 04:45:22;;;;;;;2.08;1.70;;;;;;;;;;4983749;28;20062;-91
2022/07/13 04:47:49;;;;;;;4.47;1.52;;;;;;;;;;4983236;28;20041;-91
2022/07/13 04:50:14;;;;;;;5.05;1.80;;;;;;;;;;4990376;28;20026;-93
2022/07/13 04:52:39;;;;;;;3.78;1.88;;;;;;;;;;4990999;28;20043;-92
2022/07/13 04:55:06;;;;;;;2.88;1.80;;;;;;;;;;4988363;28;20125;-91
2022/07/13 04:57:32;;;;;;;2.50;1.85;;;;;;;;;;4990132;28;20030;-91
2022/07/13 04:59:57;;;;;;;4.25;1.90;;;;;;;;;;4989273;28;20037;-90
2022/07/13 05:02:22;;;;;;;2.75;1.80;;;;;;;;;;5005216;28;20030;-92
2022/07/13 05:04:48;;;;;;;5.68;1.80;;;;;;;;;;4990701;28;20114;-90
2022/07/13 05:07:13;;;;;;;3.00;1.98;;;;;;;;;;4984924;28;20509;-90
2022/07/13 05:09:39;;;;;;;3.30;1.98;;;;;;;;;;4980452;28;20477;-90
2022/07/13 05:12:04;;;;;;;3.00;1.90;;;;;;;;;;4989451;28;20031;-91
2022/07/13 05:14:30;;;;;;;5.10;2.03;;;;;;;;;;4994735;28;20042;-91
2022/07/13 05:16:55;;;;;;;2.75;1.90;;;;;;;;;;4991774;28;20416;-91
2022/07/13 05:19:21;;;;;;;6.65;1.98;;;;;;;;;;4987191;28;20058;-91
2022/07/13 05:21:46;;;;;;;3.40;2.20;;;;;;;;;;4985895;28;20018;-91
2022/07/13 05:24:11;;;;;;;4.38;1.90;;;;;;;;;;4990154;28;20038;-92
2022/07/13 05:26:37;;;;;;;2.63;2.03;;;;;;;;;;4988904;28;20057;-92
2022/07/13 05:29:04;;;;;;;3.97;2.25;;;;;;;;;;4986361;28;20039;-91
2022/07/13 05:31:30;;;;;;;2.50;1.77;;;;;;;;;;4985331;28;20101;-92
2022/07/13 05:33:56;;;;;;;2.40;1.80;;;;;;;;;;4993315;28;20417;-91
2022/07/13 05:36:21;;;;;;;3.45;1.85;;;;;;;;;;4987125;28;20023;-91
2022/07/13 05:38:46;;;;;;;3.58;1.90;;;;;;;;;;4985789;28;20065;-90
2022/07/13 05:41:12;;;;;;;4.20;1.90;;;;;;;;;;4984297;28;20042;-92
2022/07/13 05:43:38;;;;;;;4.10;2.03;;;;;;;;;;4986659;28;20450;-92
2022/07/13 05:46:04;;;;;;;3.88;2.05;;;;;;;;;;4995798;28;20054;-93
2022/07/13 05:48:29;;;;;;;3.33;1.90;;;;;;;;;;4984260;28;20489;-93
2022/07/13 05:50:55;;;;;;;3.47;1.88;;;;;;;;;;4988057;28;20034;-92
2022/07/13 05:53:20;;;;;;;4.05;1.95;;;;;;;;;;4990604;28;20030;-92
2022/07/13 05:55:45;;;;;;;3.13;1.98;;;;;;;;;;4992921;28;20624;-93
2022/07/13 05:58:11;;;;;;;4.82;1.80;;;;;;;;;;4988068;28;20061;-92
2022/07/13 06:00:36;;;;;;;3.80;2.53;;;;;;;;;;4979456;28;20053;-92
2022/07/13 06:03:01;;;;;;;4.25;1.83;;;;;;;;;;4983412;28;20033;-93
2022/07/13 06:05:27;;;;;;;4.65;1.92;;;;;;;;;;4991021;28;20046;-91
2022/07/13 06:07:52;;;;;;;3.58;1.80;;;;;;;;;;4985448;28;20582;-90
2022/07/13 06:10:18;;;;;;;3.55;2.08;;;;;;;;;;4985213;28;20058;-90
2022/07/13 06:12:43;;;;;;;3.08;1.80;;;;;;;;;;4986851;28;20022;-91
2022/07/13 06:15:09;;;;;;;2.78;1.60;;;;;;;;;;4993358;28;20516;-90
2022/07/13 06:17:34;;;;;;;3.60;1.90;;;;;;;;;;4993011;28;20030;-91
2022/07/13 06:20:00;;;;;;;3.60;1.70;;;;;;;;;;5008253;28;20092;-88
2022/07/13 06:22:25;;;;;;;2.47;1.77;;;;;;;;;;4992481;28;20034;-90
2022/07/13 06:24:50;;;;;;;3.08;1.98;;;;;;;;;;4991849;28;20102;-90
2022/07/13 06:27:16;;;;;;;3.70;2.00;;;;;;;;;;4991915;28;20018;-91
2022/07/13 06:29:41;;;;;;;4.68;2.03;;;;;;;;;;4991577;28;20038;-83
2022/07/13 06:32:06;;;;;;;2.47;1.67;;;;;;;;;;4987732;28;20054;-82
2022/07/13 06:34:32;;;;;;;5.20;1.75;;;;;;;;;;4987039;28;20038;-82
2022/07/13 06:36:57;;;;;;;3.58;1.80;;;;;;;;;;4990354;28;20501;-82
2022/07/13 06:39:22;;;;;;;6.28;1.92;;;;;;;;;;4991299;28;20463;-82
2022/07/13 06:41:48;;;;;;;2.35;1.77;;;;;;;;;;4988497;28;20609;-82
2022/07/13 06:44:13;;;;;;;2.83;2.00;;;;;;;;;;4988995;28;20649;-82
2022/07/13 06:46:38;;;;;;;4.95;2.22;;;;;;;;;;4982399;28;20181;-82
2022/07/13 06:49:04;;;;;;;4.93;1.80;;;;;;;;;;4984840;28;20106;-82
2022/07/13 06:51:29;;;;;;;3.90;2.00;;;;;;;;;;4987363;28;20038;-83
2022/07/13 06:53:55;;;;;;;4.47;2.10;;;;;;;;;;4983687;28;20043;-83
2022/07/13 06:56:20;;;;;;;8.02;2.17;;;;;;;;;;4981832;28;20031;-83
2022/07/13 06:58:47;;;;;;;3.42;2.10;;;;;;;;;;4981949;28;20027;-83
2022/07/13 07:01:13;;;;;;;7.90;1.85;;;;;;;;;;4985795;28;20034;-85
2022/07/13 07:03:38;;;;;;;5.38;2.63;;;;;;;;;;4986589;28;20085;-84
2022/07/13 07:06:04;;;;;;;4.25;2.20;;;;;;;;;;4985485;28;20046;-85
2022/07/13 07:08:29;;;;;;;4.45;2.08;;;;;;;;;;4986539;28;20034;-86
2022/07/13 07:10:55;;;;;;;3.92;2.03;;;;;;;;;;4985908;28;20085;-87
2022/07/13 07:13:20;;;;;;;2.55;1.60;;;;;;;;;;4987631;28;20038;-89
2022/07/13 07:15:46;;;;;;;5.03;2.00;;;;;;;;;;4983132;28;20096;-89
2022/07/13 07:18:12;;;;;;;7.32;2.22;;;;;;;;;;4989280;28;20068;-89
2022/07/13 07:20:38;;;;;;;2.17;1.75;;;;;;;;;;4986964;28;20730;-87
2022/07/13 07:23:03;;;;;;;2.78;1.80;;;;;;;;;;4980857;28;20039;-86
2022/07/13 07:25:29;;;;;;;5.03;2.30;;;;;;;;;;4979342;28;20092;-86
2022/07/13 07:27:55;;;;;;;4.10;2.17;;;;;;;;;;4984071;28;20529;-85
2022/07/13 07:30:20;;;;;;;3.80;2.10;;;;;;;;;;4979565;28;20627;-86
2022/07/13 07:32:45;;;;;;;2.80;1.80;;;;;;;;;;4984507;28;20031;-89
2022/07/13 07:35:11;;;;;;;3.00;2.20;;;;;;;;;;4985565;28;20043;-86
2022/07/13 07:37:38;;;;;;;3.75;2.17;;;;;;;;;;4985339;28;20045;-87
2022/07/13 07:40:05;;;;;;;3.28;2.15;;;;;;;;;;4985750;28;20114;-87
2022/07/13 07:42:31;;;;;;;3.13;2.35;;;;;;;;;;4987827;28;20030;-85
2022/07/13 07:44:56;;;;;;;3.28;2.03;;;;;;;;;;4983784;28;20076;-88
2022/07/13 07:47:24;;;;;;;7.22;2.30;;;;;;;;;;4986392;28;20031;-88
2022/07/13 07:49:50;;;;;;;4.95;2.28;;;;;;;;;;4983304;28;20035;-85
2022/07/13 07:52:15;;;;;;;4.25;2.55;;;;;;;;;;4983442;28;20034;-85
2022/07/13 07:54:40;;;;;;;5.38;2.40;;;;;;;;;;4998122;28;20116;-84
2022/07/13 07:57:06;;;;;;;5.60;2.20;;;;;;;;;;4999437;28;20050;-86
2022/07/13 07:59:31;;;;;;;11.27;2.40;;;;;;;;;;4981044;28;20062;-86
2022/07/13 08:01:57;;;;;;;4.93;2.50;;;;;;;;;;4983938;28;20042;-88
2022/07/13 08:04:22;;;;;;;2.25;1.98;;;;;;;;;;4987914;28;20027;-89
2022/07/13 08:06:48;;;;;;;3.25;2.20;;;;;;;;;;4992577;28;20038;-92
2022/07/13 08:09:13;;;;;;;4.68;2.10;;;;;;;;;;4986309;28;20022;-87
2022/07/13 08:11:39;;;;;;;6.72;2.30;;;;;;;;;;4976777;28;20027;-85
2022/07/13 08:14:04;;;;;;;2.50;2.00;;;;;;;;;;4988541;28;20616;-88
2022/07/13 08:16:29;;;;;;;5.80;2.53;;;;;;;;;;4988256;28;20035;-90
2022/07/13 08:18:55;;;;;;;5.63;2.47;;;;;;;;;;4990012;28;20045;-92
2022/07/13 08:21:20;;;;;;;4.60;2.30;;;;;;;;;;4989620;28;20019;-93
2022/07/13 08:23:51;;;;;;;3.10;2.10;;;;;;;;;;4981805;28;20026;-92
2022/07/13 08:26:27;;;;;;;8.30;2.20;;;;;;;;;;4980470;28;20031;-87
2022/07/13 08:28:54;;;;;;;5.07;2.60;;;;;;;;;;4982407;28;20581;-86
2022/07/13 08:31:21;;;;;;;5.10;2.83;;;;;;;;;;4978392;28;20073;-86
2022/07/13 08:39:15;;;;;;;6.28;2.47;;;;;;;;;;4990944;28;20093;-85
2022/07/13 08:41:40;;;;;;;3.00;2.10;;;;;;;;;;4983245;28;20035;-87
2022/07/13 08:44:06;;;;;;;4.03;2.13;;;;;;;;;;4986249;28;20046;-87
2022/07/13 08:46:32;;;;;;;4.50;2.50;;;;;;;;;;4978450;28;20596;-90
2022/07/13 08:48:57;;;;;;;2.75;1.98;;;;;;;;;;4988651;28;20125;-90
2022/07/13 08:51:24;;;;;;;5.07;2.13;;;;;;;;;;4992061;28;20034;-87
2022/07/13 08:53:51;;;;;;;5.07;2.05;;;;;;;;;;4991298;28;20042;-87
2022/07/13 08:56:18;;;;;;;4.70;2.63;;;;;;;;;;5002512;28;20038;-87
2022/07/13 08:58:43;;;;;;;7.47;2.20;;;;;;;;;;4988808;28;20054;-87
2022/07/13 09:01:09;;;;;;;7.70;2.10;;;;;;;;;;4985218;28;20531;-91
2022/07/13 09:03:35;;;;;;;5.38;2.47;;;;;;;;;;4985340;28;20026;-91
2022/07/13 09:06:02;;;;;;;3.58;2.25;;;;;;;;;;4990377;28;20360;-91
2022/07/13 09:08:28;;;;;;;3.63;2.20;;;;;;;;;;4987371;28;20030;-88
2022/07/13 09:10:58;;;;;;;3.58;2.30;;;;;;;;;;4988335;28;20046;-89
2022/07/13 09:13:41;;;;;;;4.78;2.40;;;;;;;;;;4982653;28;20589;-90
2022/07/13 09:16:16;;;;;;;7.80;2.35;;;;;;;;;;4984645;28;20060;-88
2022/07/13 09:19:05;;;;;;;2.95;2.00;;;;;;;;;;5006891;28;20034;-88
2022/07/13 09:21:30;;;;;;;4.07;2.65;;;;;;;;;;4993212;28;20034;-88
2022/07/13 09:23:58;;;;;;;3.38;2.22;;;;;;;;;;4983454;28;20041;-87
2022/07/13 09:26:39;;;;;;;4.03;2.20;;;;;;;;;;4976097;28;20081;-85
2022/07/13 09:29:05;;;;;;;4.82;2.30;;;;;;;;;;4984962;28;20042;-88
2022/07/13 09:31:31;;;;;;;5.28;2.38;;;;;;;;;;4992994;28;20053;-85
2022/07/13 09:33:56;;;;;;;3.95;2.30;;;;;;;;;;4986220;28;20601;-85
2022/07/13 09:36:23;;;;;;;11.32;2.10;;;;;;;;;;4983044;28;20617;-85
2022/07/13 09:38:52;;;;;;;7.38;2.67;;;;;;;;;;4985772;28;20157;-85
2022/07/13 09:41:18;;;;;;;4.53;2.85;;;;;;;;;;4984734;28;20034;-85
2022/07/13 09:46:54;;;;;;;7.18;2.60;;;;;;;;;;4985653;28;20536;-85
2022/07/13 09:49:29;;;;;;;4.43;2.20;;;;;;;;;;4978483;28;20097;-84
2022/07/13 09:51:59;;;;;;;6.35;2.25;;;;;;;;;;4984444;28;20036;-85
2022/07/13 09:54:30;;;;;;;4.03;2.50;;;;;;;;;;5004669;28;20148;-86
2022/07/13 09:57:04;;;;;;;3.08;2.60;;;;;;;;;;4978352;28;20098;-88
2022/07/13 09:59:30;;;;;;;2.90;2.30;;;;;;;;;;4984662;28;20105;-87
2022/07/13 10:01:56;;;;;;;3.38;2.65;;;;;;;;;;4971267;28;20118;-88
2022/07/13 10:04:24;;;;;;;4.47;2.63;;;;;;;;;;4989647;28;20720;-88
2022/07/13 10:06:50;;;;;;;13.95;2.63;;;;;;;;;;4984112;28;20050;-89
2022/07/13 10:09:27;;;;;;;5.75;2.72;;;;;;;;;;4989469;28;20420;-86
2022/07/13 10:11:52;;;;;;;3.78;2.60;;;;;;;;;;4984264;28;20417;-91
2022/07/13 10:14:18;;;;;;;15.18;2.95;;;;;;;;;;4987041;28;20058;-87
2022/07/13 10:16:44;;;;;;;4.28;2.60;;;;;;;;;;4982535;28;20039;-90
2022/07/13 10:19:11;;;;;;;6.40;2.70;;;;;;;;;;4980439;28;20445;-87
2022/07/13 10:21:52;;;;;;;3.47;2.72;;;;;;;;;;4998803;28;20030;-91
2022/07/13 10:24:18;;;;;;;3.72;2.72;;;;;;;;;;4983690;28;20050;-91
2022/07/13 10:26:47;;;;;;;4.70;2.80;;;;;;;;;;4985417;28;20144;-86
2022/07/13 10:29:14;;;;;;;4.50;2.20;;;;;;;;;;4983475;28;20041;-86
2022/07/13 10:31:40;;;;;;;5.82;3.03;;;;;;;;;;4982580;28;20093;-89
2022/07/13 10:34:07;;;;;;;4.30;2.90;;;;;;;;;;4982453;28;20040;-84
2022/07/13 10:36:51;;;;;;;7.43;2.72;;;;;;;;;;4984784;28;20030;-91
2022/07/13 10:39:24;;;;;;;5.13;2.70;;;;;;;;;;4989794;28;20042;-87
2022/07/13 10:42:04;;;;;;;5.32;2.88;;;;;;;;;;5002353;28;21157;-91
2022/07/13 10:44:36;;;;;;;4.97;2.65;;;;;;;;;;4986235;28;20046;-90
2022/07/13 10:47:03;;;;;;;4.07;2.60;;;;;;;;;;4986547;28;20611;-84
2022/07/13 10:49:53;;;;;;;4.75;2.53;;;;;;;;;;4987952;28;20113;-88
2022/07/13 10:52:20;;;;;;;6.38;2.58;;;;;;;;;;4991500;28;20057;-86
2022/07/13 10:55:05;;;;;;;6.53;2.80;;;;;;;;;;4984775;28;20030;-89
2022/07/13 10:57:31;;;;;;;5.15;2.63;;;;;;;;;;4988471;28;20097;-86
2022/07/13 11:00:19;;;;;;;5.95;2.30;;;;;;;;;;4985129;28;20129;-87
2022/07/13 11:03:01;;;;;;;9.05;2.53;;;;;;;;;;4989558;28;20726;-91
2022/07/13 11:05:30;;;;;;;4.03;2.23;;;;;;;;;;4985585;28;20060;-87
2022/07/13 11:07:56;;;;;;;4.25;2.30;;;;;;;;;;4988060;28;20061;-84
2022/07/13 11:10:25;;;;;;;4.18;2.30;;;;;;;;;;4985170;28;20039;-83
2022/07/13 11:13:12;;;;;;;3.50;2.17;;;;;;;;;;4986751;28;20095;-84
2022/07/13 11:15:52;;;;;;;4.80;2.50;;;;;;;;;;4994615;28;20025;-91
2022/07/13 11:18:21;;;;;;;4.03;2.47;;;;;;;;;;5011744;28;20065;-91
2022/07/13 11:20:59;;;;;;;3.70;2.50;;;;;;;;;;5013169;28;20033;-91
2022/07/13 11:26:43;;;;;;;2.85;2.40;;;;;;;;;;5010363;28;20068;-85
2022/07/13 11:29:24;;;;;;;3.60;2.30;;;;;;;;;;5008820;28;20053;-89
2022/07/13 11:32:06;;;;;;;2.30;2.10;;;;;;;;;;5007540;28;20037;-92
2022/07/13 11:34:31;;;;;;;2.38;2.17;;;;;;;;;;5008161;28;20429;-84
2022/07/13 11:37:01;;;;;;;3.28;2.00;;;;;;;;;;5007870;28;20033;-85
2022/07/13 11:39:34;;;;;;;3.40;1.90;;;;;;;;;;5008097;28;20025;-84
2022/07/13 11:42:07;;;;;;;4.55;1.75;;;;;;;;;;5007445;28;20042;-87
2022/07/13 11:44:34;;;;;;;2.55;1.80;;;;;;;;;;4997175;28;20057;-87
2022/07/13 11:47:07;;;;;;;2.53;1.90;;;;;;;;;;4989529;28;20505;-86
2022/07/13 11:49:47;;;;;;;3.38;1.80;;;;;;;;;;4987286;28;20034;-86
2022/07/13 11:52:24;;;;;;;4.55;2.05;;;;;;;;;;4985931;28;20043;-86
2022/07/13 11:54:56;;;;;;;3.03;1.80;;;;;;;;;;4987120;28;20042;-87
2022/07/13 11:57:22;;;;;;;2.53;1.58;;;;;;;;;;4990049;28;20054;-91
2022/07/13 11:59:47;;;;;;;11.63;1.90;;;;;;;;;;4991409;28;20074;-90
2022/07/13 12:02:14;;;;;;;4.63;1.80;;;;;;;;;;4989823;28;20046;-88
2022/07/13 12:04:44;;;;;;;3.97;1.48;;;;;;;;;;4987412;28;20038;-92
2022/07/13 12:07:17;;;;;;;1.60;1.42;;;;;;;;;;4986270;28;20030;-89
2022/07/13 12:09:46;;;;;;;;;;;;;;;;;;4984491;28;20489;-87
2022/07/13 12:12:12;;;;;;;5.35;1.90;;;;;;;;;;4985749;28;20301;-92
2022/07/13 12:14:38;;;;;;;2.05;1.52;;;;;;;;;;4987046;28;20100;-89
2022/07/13 12:17:03;;;;;;;1.77;1.63;;;;;;;;;;4985234;28;20050;-89
2022/07/13 12:19:29;;;;;;;1.98;1.77;;;;;;;;;;4988440;28;20383;-92
2022/07/13 12:21:58;;;;;;;2.15;1.70;;;;;;;;;;4991356;28;20030;-89
2022/07/13 12:24:24;;;;;;;2.70;1.60;;;;;;;;;;4994716;28;20030;-89
2022/07/13 12:26:53;;;;;;;4.78;1.88;;;;;;;;;;5001006;28;20061;-84
2022/07/13 12:29:34;;;;;;;3.85;1.80;;;;;;;;;;4987530;28;20038;-86
2022/07/13 12:32:01;;;;;;;10.50;2.20;;;;;;;;;;4980496;28;20590;-85
2022/07/13 12:34:27;;;;;;;1.92;1.73;;;;;;;;;;4981490;28;20038;-86
2022/07/13 12:36:53;;;;;;;4.63;1.92;;;;;;;;;;4984157;28;20077;-85
2022/07/13 12:39:20;;;;;;;2.00;1.80;;;;;;;;;;4987581;28;20026;-89
2022/07/13 12:41:55;;;;;;;2.13;1.77;;;;;;;;;;4985058;28;20065;-85
2022/07/13 12:44:27;;;;;;;3.35;2.00;;;;;;;;;;4984267;28;20047;-86
2022/07/13 12:46:54;;;;;;;2.13;1.92;;;;;;;;;;4984945;28;20034;-90
2022/07/13 12:49:29;;;;;;;3.95;2.20;;;;;;;;;;4989548;28;20030;-92
2022/07/13 12:51:55;;;;;;;3.85;2.20;;;;;;;;;;4986554;28;20053;-92
2022/07/13 12:54:47;;;;;;;3.15;2.25;;;;;;;;;;4987394;28;20018;-87
2022/07/13 12:57:18;;;;;;;2.65;2.40;;;;;;;;;;4983798;28;20052;-83
2022/07/13 13:00:22;;;;;;;2.55;2.17;;;;;;;;;;4998292;28;20031;-88
2022/07/13 13:02:48;;;;;;;3.55;2.28;;;;;;;;;;4920882;29;20107;-84
2022/07/13 13:05:14;;;;;;;3.72;2.15;;;;;;;;;;4977327;28;20137;-85
2022/07/13 13:07:39;;;;;;;3.05;2.08;;;;;;;;;;4991890;28;20533;-85
2022/07/13 13:10:07;;;;;;;4.10;2.25;;;;;;;;;;4989172;28;20158;-85
2022/07/13 13:12:33;;;;;;;2.60;2.00;;;;;;;;;;4986803;28;20097;-87
2022/07/13 13:15:03;;;;;;;2.92;1.83;;;;;;;;;;4989308;28;20034;-88
2022/07/13 13:17:29;;;;;;;3.30;2.08;;;;;;;;;;4986561;28;20045;-87
2022/07/13 13:19:54;;;;;;;4.00;2.10;;;;;;;;;;4993802;28;20426;-92
2022/07/13 13:22:20;;;;;;;2.75;2.00;;;;;;;;;;4985013;28;20031;-95
2022/07/13 13:24:46;;;;;;;2.55;1.90;;;;;;;;;;4986044;28;20025;-87
2022/07/13 13:27:12;;;;;;;5.28;2.10;;;;;;;;;;4988771;28;20026;-90
2022/07/13 13:32:21;;;;;;;3.80;2.13;;;;;;;;;;4983465;28;20053;-92
2022/07/13 13:34:47;;;;;;;4.07;2.30;;;;;;;;;;4977521;28;20034;-88
2022/07/13 13:37:13;;;;;;;4.72;2.40;;;;;;;;;;4986029;28;20038;-89
2022/07/13 13:39:38;;;;;;;2.30;2.10;;;;;;;;;;4978834;28;20077;-85
2022/07/13 13:42:04;;;;;;;2.90;2.30;;;;;;;;;;4982897;28;20037;-89
2022/07/13 13:44:29;;;;;;;3.13;2.20;;;;;;;;;;4987177;28;20041;-84
2022/07/13 13:46:54;;;;;;;3.42;2.03;;;;;;;;;;4982590;28;20050;-85
2022/07/13 13:49:20;;;;;;;3.88;1.90;;;;;;;;;;4986081;28;20049;-87
2022/07/13 13:51:45;;;;;;;3.15;1.95;;;;;;;;;;4981752;28;20031;-92
2022/07/13 13:54:11;;;;;;;2.42;2.22;;;;;;;;;;4975804;28;20391;-88
2022/07/13 13:56:40;;;;;;;3.10;2.10;;;;;;;;;;4979204;28;20617;-90
2022/07/13 13:59:06;;;;;;;2.88;2.10;;;;;;;;;;4994539;28;20050;-84
2022/07/13 14:01:31;;;;;;;3.65;2.38;;;;;;;;;;4977835;28;20066;-89
2022/07/13 14:03:57;;;;;;;2.53;2.00;;;;;;;;;;4986138;28;20079;-90
2022/07/13 14:06:22;;;;;;;2.83;2.45;;;;;;;;;;4984545;28;20064;-89
2022/07/13 14:08:48;;;;;;;4.35;2.35;;;;;;;;;;4987690;28;20096;-89
2022/07/13 14:11:14;;;;;;;5.88;2.30;;;;;;;;;;4989038;28;20031;-91
2022/07/13 14:13:40;;;;;;;2.90;2.35;;;;;;;;;;5014071;28;20046;-92
2022/07/13 14:16:06;;;;;;;2.55;2.30;;;;;;;;;;4992028;28;20141;-91
2022/07/13 14:18:32;;;;;;;3.42;2.35;;;;;;;;;;4991406;28;20037;-91
2022/07/13 14:20:58;;;;;;;3.95;2.63;;;;;;;;;;5002230;28;20042;-85
2022/07/13 14:23:23;;;;;;;2.45;2.25;;;;;;;;;;5011443;28;20030;-90
2022/07/13 14:25:49;;;;;;;3.47;2.08;;;;;;;;;;5012471;28;20042;-91
2022/07/13 14:28:16;;;;;;;4.07;2.60;;;;;;;;;;5002999;28;20042;-92
2022/07/13 14:30:44;;;;;;;2.40;2.00;;;;;;;;;;4988793;28;20034;-92
2022/07/13 14:33:14;;;;;;;2.33;2.10;;;;;;;;;;4989696;28;20053;-91
2022/07/13 14:35:43;;;;;;;2.15;1.83;;;;;;;;;;4987303;28;20043;-88
2022/07/13 14:38:12;;;;;;;2.35;1.80;;;;;;;;;;4988272;28;20072;-93
2022/07/13 14:40:42;;;;;;;3.67;2.15;;;;;;;;;;4991613;28;20026;-92
2022/07/13 14:43:09;;;;;;;3.33;2.17;;;;;;;;;;4989826;28;20403;-95
2022/07/13 14:45:35;;;;;;;2.78;2.10;;;;;;;;;;4984388;28;20042;-91
2022/07/13 14:48:03;;;;;;;1.83;1.73;;;;;;;;;;4991158;28;20856;-90
2022/07/13 14:50:32;;;;;;;4.43;1.80;;;;;;;;;;4986329;28;20037;-95
2022/07/13 14:52:58;;;;;;;2.63;1.52;;;;;;;;;;4994309;28;20070;-89
2022/07/13 14:55:23;;;;;;;2.97;1.70;;;;;;;;;;4993296;28;20081;-90
2022/07/13 14:57:49;;;;;;;1.58;1.48;;;;;;;;;;4983764;28;20490;-87